Flight Track Log - Related Links

Times and Time Zones

All times are in EDT time to prevent confusion due to time zone crossing. See the EJA922 flight status page for this flight to view local times or setup timezone preferences in your user account.

Time Position Orientation Groundspeed Altitude Reporting Facility
EDT Latitude Longitude Course Direction KTS km/h feet Rate Location/Type
Tue 10:43:19 40.0022 -82.9100 239° Southwest 164 304 1.500  Level Indianapolis Center
Tue 10:45:02 39.9547 -83.0117 239° Southwest 278 515 8.700 3.434 Climbing Indianapolis Center
Tue 10:46:12 39.8772 -82.9333 142° Southeast 310 575 11.400 2.727 Climbing Indianapolis Center
Tue 10:47:14 39.8117 -82.8592 139° Southeast 311 576 14.700 2.903 Climbing Indianapolis Center
Tue 10:48:16 39.7428 -82.7817 139° Southeast 322 597 17.400 2.516 Climbing Indianapolis Center
Tue 10:49:18 39.6628 -82.7150 147° Southeast 340 629 19.900 2.081 Climbing Indianapolis Center
Tue 10:50:20 39.5758 -82.6417 147° Southeast 369 684 21.700 1.742 Climbing Indianapolis Center
Tue 10:51:22 39.4847 -82.5636 147° Southeast 388 719 23.500 1.742 Climbing Indianapolis Center
Tue 10:52:24 39.3808 -82.5308 166° South 390 723 25.300 1.887 Climbing Indianapolis Center
Tue 10:53:26 39.2511 -82.5508 187° South 393 727 27.400 1.887 Climbing Indianapolis Center
Tue 10:54:28 39.1392 -82.5653 186° South 404 748 29.200 1.742 Climbing Indianapolis Center
Tue 10:55:30 39.0267 -82.5814 186° South 407 753 31.000 1.742 Climbing Indianapolis Center
Tue 10:56:32 38.9094 -82.5972 186° South 420 777 32.800 1.548 Climbing Indianapolis Center
Tue 10:57:34 38.7906 -82.6136 186° South 429 795 34.200 1.306 Climbing Indianapolis Center
Tue 10:58:36 38.6417 -82.6350 186° South 446 826 35.500 1.171 Climbing Indianapolis Center
Tue 10:59:37 38.5061 -82.6519 186° South 466 863 36.600 976 Climbing Indianapolis Center
Tue 11:00:39 38.3719 -82.6706 186° South 480 888 37.500 919 Climbing Indianapolis Center
Tue 11:01:41 38.2364 -82.6875 186° South 487 901 38.500 1.016 Climbing Indianapolis Center
Tue 11:02:43 38.1003 -82.7072 187° South 489 906 39.600 1.065 Climbing Indianapolis Center
Tue 11:03:45 37.9642 -82.7244 186° South 491 909 40.700 919 Climbing Indianapolis Center
Tue 11:04:47 37.8272 -82.7425 186° South 492 911 41.500 774 Climbing Indianapolis Center
Tue 11:05:49 37.6681 -82.7669 187° South 494 914 42.300 726 Climbing Indianapolis Center
Tue 11:06:51 37.5483 -82.8375 205° Southwest 475 880 43.000 339 Climbing Indianapolis Center
Tue 11:07:53 37.4297 -82.9161 208° Southwest 480 888 43.000  Level Indianapolis Center
Tue 11:08:55 37.3114 -82.9947 208° Southwest 483 895 43.000  Level Indianapolis Center
Tue 11:09:56 37.1906 -83.0728 207° Southwest 490 908 43.000  Level Indianapolis Center
Tue 11:10:58 37.0519 -83.1633 208° Southwest 488 904 43.000  Level Indianapolis Center
Tue 11:12:00 36.9319 -83.2406 207° Southwest 489 906 43.000  Level Indianapolis Center
Tue 11:13:02 36.8108 -83.3181 207° Southwest 490 908 43.000  Level Indianapolis Center
Tue 11:14:04 36.6906 -83.3953 207° Southwest 487 901 43.000  Level Indianapolis Center
Tue 11:15:06 36.5683 -83.4728 207° Southwest 491 909 43.000  Level Indianapolis Center
Tue 11:16:07 36.4475 -83.5511 208° Southwest 490 908 43.000  Level Indianapolis Center
Tue 11:17:09 36.3011 -83.6444 207° Southwest 490 908 43.000  Level Indianapolis Center
Tue 11:18:11 36.1786 -83.7214 207° Southwest 492 911 43.000  Level Indianapolis Center
Tue 11:19:13 36.0572 -83.7989 207° Southwest 491 909 43.000  Level Indianapolis Center
Tue 11:20:28 35.9081 -83.8875 206° Southwest 488 904 43.000  Level Atlanta Center
Tue 11:21:28 35.7703 -83.9261 193° South 498 922 43.000  Level Atlanta Center
Tue 11:22:28 35.6306 -83.9622 192° South 503 932 43.000  Level Atlanta Center
Tue 11:23:28 35.4764 -83.9981 191° South 515 954 43.000  Level Atlanta Center
Tue 11:24:28 35.3364 -84.0336 192° South 515 954 43.000  Level Atlanta Center
Tue 11:25:28 35.1947 -84.0667 191° South 515 954 43.000  Level Atlanta Center
Tue 11:26:28 35.0589 -84.0997 191° South 515 954 43.000  Level Atlanta Center
Tue 11:27:28 34.9169 -84.1350 192° South 515 954 43.000  Level Atlanta Center
Tue 11:28:28 34.7792 -84.1678 191° South 515 954 43.000  Level Atlanta Center
Tue 11:29:28 34.6436 -84.1978 190° South 515 954 43.000  Level Atlanta Center
Tue 11:30:28 34.5017 -84.2328 191° South 503 932 43.000  Level Atlanta Center
Tue 11:31:28 34.3764 -84.2603 190° South 510 945 43.000  Level Atlanta Center
Tue 11:32:28 34.2386 -84.2925 191° South 510 945 43.000  Level Atlanta Center
Tue 11:33:28 34.0797 -84.3322 192° South 516 956 43.000  Level Atlanta Center
Tue 11:34:28 33.9336 -84.3667 191° South 521 966 43.000  Level Atlanta Center
Tue 11:35:28 33.7958 -84.3986 191° South 528 978 43.000  Level Atlanta Center
Tue 11:36:28 33.6497 -84.4306 190° South 523 969 43.000 -250 Level Atlanta Center
Tue 11:37:28 33.5139 -84.4847 198° South 523 969 42.500  Descending Atlanta Center
Tue 11:38:28 33.3842 -84.5414 200° South 518 959 43.000 -1.850 Climbing Atlanta Center
Tue 11:39:28 33.2481 -84.6028 201° Southwest 513 950 38.800  Descending Atlanta Center
Tue 11:40:28 33.1269 -84.6514 199° South 513 950 43.000 -1.650 Climbing Atlanta Center
Tue 11:41:28 32.9908 -84.7100 200° South 513 950 35.500 -4.450 Descending Atlanta Center
Tue 11:42:28 32.8569 -84.7708 201° Southwest 513 950 34.100 -1.550 Descending Atlanta Center
Tue 11:43:28 32.7189 -84.8239 198° South 513 950 32.400 -1.550 Descending Atlanta Center
Tue 11:44:28 32.5703 -84.8867 200° South 519 961 31.000 -1.600 Descending Atlanta Center
Tue 11:45:28 32.4322 -84.9394 198° South 524 970 29.200 -1.770 Descending Atlanta Center
Tue 11:47:31 32.1586 -85.0569 200° South 528 978 25.600 -1.705 Descending Jacksonville Center
Tue 11:48:31 32.0303 -85.1103 199° South 515 954 24.000 -800 Descending Jacksonville Center
Tue 11:49:31 31.9042 -85.1611 199° South 498 922 24.000  Level Jacksonville Center
Tue 11:50:31 31.7842 -85.2119 200° South 478 885 24.000 -450 Level Jacksonville Center
Tue 11:51:31 31.6642 -85.2628 200° South 465 861 23.100 -1.571 Descending Jacksonville Center
Tue 11:52:37 31.5231 -85.3225 200° South 483 895 20.700 -2.095 Descending Jacksonville Center
Tue 11:53:37 31.4117 -85.3681 199° South 438 811 18.700 -1.983 Descending Jacksonville Center
Tue 11:54:38 31.2917 -85.4161 199° South 426 789 16.700 -1.918 Descending Jacksonville Center
Tue 11:55:39 31.1842 -85.4617 200° South 427 790 14.800 -1.965 Descending Jacksonville Center
Tue 11:56:31 31.0875 -85.4978 198° South 429 795 13.000 -1.821 Descending Jacksonville Center
Tue 11:57:31 30.9822 -85.5411 199° South 418 774 11.400 -1.250 Descending Jacksonville Center
Tue 11:58:31 30.8975 -85.5992 210° Southwest 386 715 10.500 -1.400 Descending Jacksonville Center
Tue 11:59:31 30.8419 -85.6533 220° Southwest 324 600 8.600 -1.900 Descending Jacksonville Center
Tue 12:00:31 30.7864 -85.7122 222° Southwest 288 533 6.700 -1.900 Descending Jacksonville Center
Tue 12:01:31 30.7350 -85.7733 226° Southwest 271 502 4.800 -1.700 Descending Jacksonville Center
Tue 12:02:31 30.6794 -85.8297 221° Southwest 264 489 3.300 -900 Descending Jacksonville Center
Tue 12:03:31 30.6200 -85.8689 210° Southwest 264 489 3.000 -200 Descending Jacksonville Center
Tue 12:04:31 30.5469 -85.8739 183° South 253 468 2.900 -450 Descending Jacksonville Center
Tue 12:05:31 30.4764 -85.8475 162° South 253 468 2.100 -850 Descending Jacksonville Center
Tue 12:06:31 30.4250 -85.8242 159° South 233 431 1.200 -850 Descending Jacksonville Center
Tue 12:07:31 30.3856 -85.8086 161° South 187 346 400 4.900 Descending Jacksonville Center
Tue 12:08:31 30.3464 -85.7906 158° South 167 309 11.000 5.300 Climbing Jacksonville Center
Tue 12:09:31 30.2986 -85.7722 162° South 167 309 11.000  Level Jacksonville Center

Login

Don't have an account? Register now (free) for customized features, flight alerts, and more!